Freeman, MO (64746)

8:27 AM CDT on March 27, 2017 (GMT -0500)
Cass County, Freeman | | Change Station

Elev 961 ft 38.59 °N, 94.52 °W | Updated 2 seconds ago

Mostly Cloudy
Mostly Cloudy
47.8 °F
Feels Like 45 °F
N
6.0
Wind Variable Wind from ENE
Gusts 7.4 mph

Today
High -- | Low -- °F
--% Chance of Precip.
Yesterday
High -- | Low -- °F
Precip. -- in
Pressure 29.86 in
Visibility 7.0 miles
Clouds Mostly Cloudy 700 ft
Overcast 1200 ft
Windchill 45 °F
Dew Point 48 °F
Humidity 99%
Rainfall 0.18 in
Snow Depth Not available.
7:10 AM 7:36 PM
Waning Crescent, 0% visible
METAR KOJC 271253Z 01010KT 7SM -RA BKN007 OVC012 08/08 A2986 RMK AO2 RAE02B35 CIG 005V009 SLP112 P0000 T00780078
Pressure 29.86 in
Visibility 7.0 miles
Clouds Mostly Cloudy 700 ft
Overcast 1200 ft
Windchill 45 °F
Dew Point 48 °F
Humidity 99%
Rainfall 0.18 in
Snow Depth Not available.
7:10 AM 7:36 PM
Waning Crescent, 0% visible
METAR KOJC 271253Z 01010KT 7SM -RA BKN007 OVC012 08/08 A2986 RMK AO2 RAE02B35 CIG 005V009 SLP112 P0000 T00780078

Get Severe Weather Alerts

Thanks for signing up!

Be on the lookout for a verification email in your inbox.

You'll start receiving the daily forecast at 8 AM.

×

10-Day Weather Forecast

Almanac

Astronomy

Mar. 27, 2017 Rise Set
Actual Time
Civil Twilight
Nautical Twilight
Astronomical Twilight
Moon
Length of Visible Light
Length of Day
Tomorrow will be .
, % of the Moon is Illuminated

Today's Extremes

State Highs State Lows

Community

WunderPhotos

Upload Photos

1,962,540 photos uploaded!

WunderBlog® & News

Nearby

Air Quality

  Air Quality AQ Index Pollutant
Not available.

Snow Depth

Station Depth Elevation

Earthquake Activity

City Distance Mag. Time & Date
Minimum magnitude displayed is 2.5.

Earthquake Activity

City Distance Mag. Time & Date
Minimum magnitude displayed is 2.5.

Coastal Water Temperatures

Place Temperature

Stations

Nearby Weather Stations

Station Location Temp. Windchill Dew Point Humidity Wind Precip. Elev Updated Type
                   

Watches & Warnings

There are currently no watches in effect.